Wenonah, Illinois
Current Conditions -  °F | °C
As of 5:55 AM on Tuesday 21 Oct 2014 (Local Time) from KTAZ Reporting Station
Clear Clear  
Wind Chill: 34°   Ceiling: Unl
Heat Index: 37°   Visibility: 7mi
Dew Point: 37°   Wind: 5mph
Humidity: 100%   Direction: 360°N
Pressure: 30.07"   Gusts: NA
Location:  39.3183°N, 89.2952°W
Report Text: KTAZ 211055Z AUTO 36004KT 7SM CLR 03/03 A3007 RMK AO2
Loading
Personal Weather Stations






























Interactive Weather Map
Tropical Storm Tracking
New forecast layout! Learn more

10-Day Weather Forecast

Advertisements
Track Severe Weather on mobile